sensor_id;sensor_type;location;lat;lon;timestamp;P1;durP1;ratioP1;P2;durP2;ratioP2
15833;SDS011;8017;50.812;4.934;2022-07-23T00:02:40;20.03;;;15.40;;
15833;SDS011;8017;50.812;4.934;2022-07-23T00:05:42;19.27;;;16.00;;
15833;SDS011;8017;50.812;4.934;2022-07-23T00:08:44;17.37;;;15.57;;
15833;SDS011;8017;50.812;4.934;2022-07-23T00:11:47;17.87;;;15.50;;
15833;SDS011;8017;50.812;4.934;2022-07-23T00:14:49;17.60;;;15.70;;
15833;SDS011;8017;50.812;4.934;2022-07-23T00:17:51;18.63;;;15.37;;
15833;SDS011;8017;50.812;4.934;2022-07-23T00:20:53;17.77;;;14.90;;
15833;SDS011;8017;50.812;4.934;2022-07-23T00:23:55;22.20;;;15.57;;
15833;SDS011;8017;50.812;4.934;2022-07-23T00:26:58;18.23;;;15.83;;
15833;SDS011;8017;50.812;4.934;2022-07-23T00:30:00;17.63;;;14.37;;
15833;SDS011;8017;50.812;4.934;2022-07-23T00:33:03;16.37;;;14.57;;
15833;SDS011;8017;50.812;4.934;2022-07-23T00:36:06;17.47;;;15.50;;
15833;SDS011;8017;50.812;4.934;2022-07-23T00:39:08;18.00;;;14.60;;
15833;SDS011;8017;50.812;4.934;2022-07-23T00:42:12;18.73;;;14.90;;
15833;SDS011;8017;50.812;4.934;2022-07-23T00:45:13;17.90;;;14.53;;
15833;SDS011;8017;50.812;4.934;2022-07-23T00:48:15;18.30;;;15.40;;
15833;SDS011;8017;50.812;4.934;2022-07-23T00:51:17;20.97;;;15.60;;
15833;SDS011;8017;50.812;4.934;2022-07-23T00:54:19;16.87;;;15.07;;
15833;SDS011;8017;50.812;4.934;2022-07-23T00:57:24;17.30;;;14.77;;
15833;SDS011;8017;50.812;4.934;2022-07-23T01:00:26;21.37;;;15.90;;
15833;SDS011;8017;50.812;4.934;2022-07-23T01:03:28;20.13;;;15.57;;
15833;SDS011;8017;50.812;4.934;2022-07-23T01:06:30;19.77;;;15.63;;
15833;SDS011;8017;50.812;4.934;2022-07-23T01:09:35;18.97;;;15.50;;
15833;SDS011;8017;50.812;4.934;2022-07-23T01:12:40;17.33;;;15.23;;
15833;SDS011;8017;50.812;4.934;2022-07-23T01:15:41;17.13;;;14.60;;
15833;SDS011;8017;50.812;4.934;2022-07-23T01:18:43;19.20;;;15.70;;
15833;SDS011;8017;50.812;4.934;2022-07-23T01:21:46;18.00;;;15.00;;
15833;SDS011;8017;50.812;4.934;2022-07-23T01:24:50;18.37;;;15.10;;
15833;SDS011;8017;50.812;4.934;2022-07-23T01:27:52;21.43;;;15.27;;
15833;SDS011;8017;50.812;4.934;2022-07-23T01:30:55;21.77;;;15.90;;
15833;SDS011;8017;50.812;4.934;2022-07-23T01:33:57;19.07;;;15.30;;
15833;SDS011;8017;50.812;4.934;2022-07-23T01:36:59;20.57;;;15.27;;
15833;SDS011;8017;50.812;4.934;2022-07-23T01:40:03;17.07;;;14.17;;
15833;SDS011;8017;50.812;4.934;2022-07-23T01:43:05;22.03;;;16.10;;
15833;SDS011;8017;50.812;4.934;2022-07-23T01:46:07;18.53;;;15.20;;
15833;SDS011;8017;50.812;4.934;2022-07-23T01:49:09;20.77;;;16.63;;
15833;SDS011;8017;50.812;4.934;2022-07-23T01:52:11;19.00;;;15.83;;
15833;SDS011;8017;50.812;4.934;2022-07-23T01:55:14;20.13;;;15.33;;
15833;SDS011;8017;50.812;4.934;2022-07-23T01:58:16;20.60;;;15.57;;
15833;SDS011;8017;50.812;4.934;2022-07-23T02:01:18;17.60;;;14.37;;
15833;SDS011;8017;50.812;4.934;2022-07-23T02:04:20;19.23;;;15.20;;
15833;SDS011;8017;50.812;4.934;2022-07-23T02:07:24;18.80;;;14.67;;
15833;SDS011;8017;50.812;4.934;2022-07-23T02:10:27;20.77;;;15.07;;
15833;SDS011;8017;50.812;4.934;2022-07-23T02:13:29;19.00;;;14.67;;
15833;SDS011;8017;50.812;4.934;2022-07-23T02:16:31;16.10;;;13.70;;
15833;SDS011;8017;50.812;4.934;2022-07-23T02:19:33;20.50;;;14.50;;
15833;SDS011;8017;50.812;4.934;2022-07-23T02:22:35;20.60;;;13.57;;
15833;SDS011;8017;50.812;4.934;2022-07-23T02:25:38;19.47;;;14.73;;
15833;SDS011;8017;50.812;4.934;2022-07-23T02:28:40;21.37;;;14.30;;
15833;SDS011;8017;50.812;4.934;2022-07-23T02:31:42;19.47;;;14.43;;
15833;SDS011;8017;50.812;4.934;2022-07-23T02:34:45;17.00;;;13.70;;
15833;SDS011;8017;50.812;4.934;2022-07-23T02:37:47;17.10;;;14.17;;
15833;SDS011;8017;50.812;4.934;2022-07-23T02:40:50;19.70;;;14.37;;
15833;SDS011;8017;50.812;4.934;2022-07-23T02:43:52;15.20;;;13.60;;
15833;SDS011;8017;50.812;4.934;2022-07-23T02:46:54;19.33;;;13.47;;
15833;SDS011;8017;50.812;4.934;2022-07-23T02:49:56;19.63;;;13.80;;
15833;SDS011;8017;50.812;4.934;2022-07-23T02:52:58;18.33;;;14.07;;
15833;SDS011;8017;50.812;4.934;2022-07-23T02:56:01;18.80;;;14.70;;
15833;SDS011;8017;50.812;4.934;2022-07-23T02:59:04;22.17;;;14.97;;
15833;SDS011;8017;50.812;4.934;2022-07-23T03:02:05;21.47;;;14.87;;
15833;SDS011;8017;50.812;4.934;2022-07-23T03:05:08;18.50;;;15.53;;
15833;SDS011;8017;50.812;4.934;2022-07-23T03:08:10;21.40;;;15.13;;
15833;SDS011;8017;50.812;4.934;2022-07-23T03:11:13;18.67;;;14.77;;
15833;SDS011;8017;50.812;4.934;2022-07-23T03:14:15;18.33;;;14.20;;
15833;SDS011;8017;50.812;4.934;2022-07-23T03:17:16;24.40;;;15.10;;
15833;SDS011;8017;50.812;4.934;2022-07-23T03:20:18;19.13;;;15.70;;
15833;SDS011;8017;50.812;4.934;2022-07-23T03:23:20;19.63;;;14.67;;
15833;SDS011;8017;50.812;4.934;2022-07-23T03:26:23;21.80;;;15.47;;
15833;SDS011;8017;50.812;4.934;2022-07-23T03:29:25;17.83;;;14.47;;
15833;SDS011;8017;50.812;4.934;2022-07-23T03:32:27;20.03;;;15.70;;
15833;SDS011;8017;50.812;4.934;2022-07-23T03:35:29;18.83;;;15.97;;
15833;SDS011;8017;50.812;4.934;2022-07-23T03:38:31;20.03;;;15.20;;
15833;SDS011;8017;50.812;4.934;2022-07-23T03:41:34;22.37;;;15.67;;
15833;SDS011;8017;50.812;4.934;2022-07-23T03:44:36;20.20;;;15.43;;
15833;SDS011;8017;50.812;4.934;2022-07-23T03:47:38;19.97;;;16.00;;
15833;SDS011;8017;50.812;4.934;2022-07-23T03:50:40;19.50;;;16.57;;
15833;SDS011;8017;50.812;4.934;2022-07-23T03:53:42;25.23;;;16.97;;
15833;SDS011;8017;50.812;4.934;2022-07-23T03:56:45;25.03;;;16.53;;
15833;SDS011;8017;50.812;4.934;2022-07-23T03:59:47;23.43;;;17.43;;
15833;SDS011;8017;50.812;4.934;2022-07-23T04:02:49;22.60;;;17.10;;
15833;SDS011;8017;50.812;4.934;2022-07-23T04:05:51;25.67;;;18.30;;
15833;SDS011;8017;50.812;4.934;2022-07-23T04:08:53;25.13;;;17.73;;
15833;SDS011;8017;50.812;4.934;2022-07-23T04:11:56;21.63;;;17.43;;
15833;SDS011;8017;50.812;4.934;2022-07-23T04:14:58;25.23;;;17.80;;
15833;SDS011;8017;50.812;4.934;2022-07-23T04:17:59;25.43;;;17.33;;
15833;SDS011;8017;50.812;4.934;2022-07-23T04:21:01;21.53;;;17.27;;
15833;SDS011;8017;50.812;4.934;2022-07-23T04:24:03;22.10;;;17.40;;
15833;SDS011;8017;50.812;4.934;2022-07-23T04:27:07;22.77;;;17.50;;
15833;SDS011;8017;50.812;4.934;2022-07-23T04:30:09;23.00;;;18.23;;
15833;SDS011;8017;50.812;4.934;2022-07-23T04:33:11;20.30;;;17.60;;
15833;SDS011;8017;50.812;4.934;2022-07-23T04:36:13;16.83;;;15.10;;
15833;SDS011;8017;50.812;4.934;2022-07-23T04:39:15;22.70;;;16.20;;
15833;SDS011;8017;50.812;4.934;2022-07-23T04:42:18;19.40;;;15.77;;
15833;SDS011;8017;50.812;4.934;2022-07-23T04:45:20;20.67;;;15.70;;
15833;SDS011;8017;50.812;4.934;2022-07-23T04:48:23;23.90;;;15.53;;
15833;SDS011;8017;50.812;4.934;2022-07-23T04:51:25;20.27;;;15.07;;
15833;SDS011;8017;50.812;4.934;2022-07-23T04:54:27;21.13;;;15.13;;
15833;SDS011;8017;50.812;4.934;2022-07-23T04:57:30;18.73;;;15.17;;
15833;SDS011;8017;50.812;4.934;2022-07-23T05:00:32;17.77;;;14.90;;
15833;SDS011;8017;50.812;4.934;2022-07-23T05:03:34;20.67;;;14.33;;
15833;SDS011;8017;50.812;4.934;2022-07-23T05:06:36;19.20;;;14.33;;
15833;SDS011;8017;50.812;4.934;2022-07-23T05:09:37;15.90;;;14.20;;
15833;SDS011;8017;50.812;4.934;2022-07-23T05:12:41;16.83;;;14.07;;
15833;SDS011;8017;50.812;4.934;2022-07-23T05:15:42;22.17;;;14.67;;
15833;SDS011;8017;50.812;4.934;2022-07-23T05:18:45;18.10;;;14.10;;
15833;SDS011;8017;50.812;4.934;2022-07-23T05:21:46;18.77;;;13.87;;
15833;SDS011;8017;50.812;4.934;2022-07-23T05:24:48;16.77;;;14.17;;
15833;SDS011;8017;50.812;4.934;2022-07-23T05:27:52;19.33;;;14.63;;
15833;SDS011;8017;50.812;4.934;2022-07-23T05:30:53;18.47;;;13.17;;
15833;SDS011;8017;50.812;4.934;2022-07-23T05:33:56;19.50;;;14.87;;
15833;SDS011;8017;50.812;4.934;2022-07-23T05:36:57;15.90;;;12.40;;
15833;SDS011;8017;50.812;4.934;2022-07-23T05:40:00;14.87;;;12.27;;
15833;SDS011;8017;50.812;4.934;2022-07-23T05:43:04;16.23;;;12.07;;
15833;SDS011;8017;50.812;4.934;2022-07-23T05:46:06;13.77;;;11.63;;
15833;SDS011;8017;50.812;4.934;2022-07-23T05:49:08;13.80;;;12.13;;
15833;SDS011;8017;50.812;4.934;2022-07-23T05:52:10;15.83;;;11.90;;
15833;SDS011;8017;50.812;4.934;2022-07-23T05:55:12;13.73;;;12.33;;
15833;SDS011;8017;50.812;4.934;2022-07-23T05:58:15;17.20;;;13.10;;
15833;SDS011;8017;50.812;4.934;2022-07-23T06:01:17;15.27;;;12.03;;
15833;SDS011;8017;50.812;4.934;2022-07-23T06:04:19;13.50;;;11.93;;
15833;SDS011;8017;50.812;4.934;2022-07-23T06:07:20;14.67;;;12.53;;
15833;SDS011;8017;50.812;4.934;2022-07-23T06:10:22;13.57;;;12.07;;
15833;SDS011;8017;50.812;4.934;2022-07-23T06:13:26;12.97;;;11.40;;
15833;SDS011;8017;50.812;4.934;2022-07-23T06:16:27;14.07;;;11.80;;
15833;SDS011;8017;50.812;4.934;2022-07-23T06:19:29;13.30;;;11.90;;
15833;SDS011;8017;50.812;4.934;2022-07-23T06:22:31;14.77;;;12.03;;
15833;SDS011;8017;50.812;4.934;2022-07-23T06:25:33;12.00;;;10.80;;
15833;SDS011;8017;50.812;4.934;2022-07-23T06:28:36;14.00;;;12.07;;
15833;SDS011;8017;50.812;4.934;2022-07-23T06:31:38;15.20;;;13.03;;
15833;SDS011;8017;50.812;4.934;2022-07-23T06:34:40;13.00;;;11.60;;
15833;SDS011;8017;50.812;4.934;2022-07-23T06:37:42;15.00;;;10.77;;
15833;SDS011;8017;50.812;4.934;2022-07-23T06:40:44;13.13;;;11.73;;
15833;SDS011;8017;50.812;4.934;2022-07-23T06:43:47;12.57;;;11.23;;
15833;SDS011;8017;50.812;4.934;2022-07-23T06:46:49;14.80;;;11.90;;
15833;SDS011;8017;50.812;4.934;2022-07-23T06:49:51;13.93;;;11.63;;
15833;SDS011;8017;50.812;4.934;2022-07-23T06:52:53;13.07;;;11.53;;
15833;SDS011;8017;50.812;4.934;2022-07-23T06:55:55;13.60;;;12.20;;
15833;SDS011;8017;50.812;4.934;2022-07-23T06:58:58;16.93;;;11.60;;
15833;SDS011;8017;50.812;4.934;2022-07-23T07:02:00;15.23;;;12.57;;
15833;SDS011;8017;50.812;4.934;2022-07-23T07:05:02;12.70;;;11.40;;
15833;SDS011;8017;50.812;4.934;2022-07-23T07:08:04;13.90;;;12.47;;
15833;SDS011;8017;50.812;4.934;2022-07-23T07:11:06;14.90;;;11.97;;
15833;SDS011;8017;50.812;4.934;2022-07-23T07:14:10;13.70;;;12.20;;
15833;SDS011;8017;50.812;4.934;2022-07-23T07:17:12;13.10;;;11.77;;
15833;SDS011;8017;50.812;4.934;2022-07-23T07:20:13;14.70;;;13.20;;
15833;SDS011;8017;50.812;4.934;2022-07-23T07:23:15;15.23;;;13.37;;
15833;SDS011;8017;50.812;4.934;2022-07-23T07:26:17;14.70;;;12.70;;
15833;SDS011;8017;50.812;4.934;2022-07-23T07:29:20;14.43;;;11.63;;
15833;SDS011;8017;50.812;4.934;2022-07-23T07:32:22;15.70;;;12.50;;
15833;SDS011;8017;50.812;4.934;2022-07-23T07:35:25;13.47;;;12.03;;
15833;SDS011;8017;50.812;4.934;2022-07-23T07:38:27;14.83;;;13.23;;
15833;SDS011;8017;50.812;4.934;2022-07-23T07:41:28;14.77;;;13.20;;
15833;SDS011;8017;50.812;4.934;2022-07-23T07:44:32;14.10;;;12.67;;
15833;SDS011;8017;50.812;4.934;2022-07-23T07:47:34;14.67;;;12.23;;
15833;SDS011;8017;50.812;4.934;2022-07-23T07:50:35;14.13;;;12.57;;
15833;SDS011;8017;50.812;4.934;2022-07-23T07:53:37;14.67;;;13.17;;
15833;SDS011;8017;50.812;4.934;2022-07-23T07:56:39;15.00;;;12.73;;
15833;SDS011;8017;50.812;4.934;2022-07-23T07:59:42;16.33;;;13.67;;
15833;SDS011;8017;50.812;4.934;2022-07-23T08:02:45;14.47;;;12.93;;
15833;SDS011;8017;50.812;4.934;2022-07-23T08:05:48;15.43;;;12.30;;
15833;SDS011;8017;50.812;4.934;2022-07-23T08:08:50;13.60;;;10.17;;
15833;SDS011;8017;50.812;4.934;2022-07-23T08:11:52;12.93;;;10.10;;
15833;SDS011;8017;50.812;4.934;2022-07-23T08:14:55;13.33;;;11.17;;
15833;SDS011;8017;50.812;4.934;2022-07-23T08:17:57;14.40;;;11.73;;
15833;SDS011;8017;50.812;4.934;2022-07-23T08:20:59;13.93;;;11.40;;
15833;SDS011;8017;50.812;4.934;2022-07-23T08:24:01;11.10;;;10.10;;
15833;SDS011;8017;50.812;4.934;2022-07-23T08:27:03;13.87;;;10.97;;
15833;SDS011;8017;50.812;4.934;2022-07-23T08:30:07;10.90;;;9.77;;
15833;SDS011;8017;50.812;4.934;2022-07-23T08:33:10;12.90;;;10.10;;
15833;SDS011;8017;50.812;4.934;2022-07-23T08:36:13;11.07;;;9.93;;
15833;SDS011;8017;50.812;4.934;2022-07-23T08:39:15;13.17;;;10.23;;
15833;SDS011;8017;50.812;4.934;2022-07-23T08:42:17;12.73;;;8.97;;
15833;SDS011;8017;50.812;4.934;2022-07-23T08:45:24;12.57;;;8.27;;
15833;SDS011;8017;50.812;4.934;2022-07-23T08:48:28;9.30;;;7.53;;
15833;SDS011;8017;50.812;4.934;2022-07-23T08:51:32;12.10;;;9.40;;
15833;SDS011;8017;50.812;4.934;2022-07-23T08:54:35;12.37;;;10.97;;
15833;SDS011;8017;50.812;4.934;2022-07-23T08:57:38;13.30;;;10.20;;
15833;SDS011;8017;50.812;4.934;2022-07-23T09:00:41;13.20;;;10.57;;
15833;SDS011;8017;50.812;4.934;2022-07-23T09:03:44;14.27;;;9.10;;
15833;SDS011;8017;50.812;4.934;2022-07-23T09:06:46;11.87;;;9.40;;
15833;SDS011;8017;50.812;4.934;2022-07-23T09:09:50;12.20;;;8.97;;
15833;SDS011;8017;50.812;4.934;2022-07-23T09:13:08;12.17;;;9.77;;
15833;SDS011;8017;50.812;4.934;2022-07-23T09:16:36;10.00;;;9.00;;
15833;SDS011;8017;50.812;4.934;2022-07-23T09:19:38;10.60;;;8.40;;
15833;SDS011;8017;50.812;4.934;2022-07-23T09:22:40;11.10;;;8.00;;
15833;SDS011;8017;50.812;4.934;2022-07-23T09:25:46;9.53;;;7.67;;
15833;SDS011;8017;50.812;4.934;2022-07-23T09:28:52;10.47;;;8.57;;
15833;SDS011;8017;50.812;4.934;2022-07-23T09:31:57;12.77;;;8.40;;
15833;SDS011;8017;50.812;4.934;2022-07-23T09:35:00;9.10;;;7.37;;
15833;SDS011;8017;50.812;4.934;2022-07-23T09:38:02;9.60;;;6.80;;
15833;SDS011;8017;50.812;4.934;2022-07-23T09:41:05;9.20;;;6.67;;
15833;SDS011;8017;50.812;4.934;2022-07-23T09:44:08;13.00;;;9.07;;
15833;SDS011;8017;50.812;4.934;2022-07-23T09:47:13;10.33;;;7.33;;
15833;SDS011;8017;50.812;4.934;2022-07-23T09:50:16;8.13;;;6.53;;
15833;SDS011;8017;50.812;4.934;2022-07-23T09:53:23;9.03;;;6.93;;
15833;SDS011;8017;50.812;4.934;2022-07-23T09:56:26;9.47;;;7.50;;
15833;SDS011;8017;50.812;4.934;2022-07-23T09:59:30;7.03;;;6.33;;
15833;SDS011;8017;50.812;4.934;2022-07-23T10:02:35;8.57;;;5.73;;
15833;SDS011;8017;50.812;4.934;2022-07-23T10:05:37;6.23;;;4.70;;
15833;SDS011;8017;50.812;4.934;2022-07-23T10:08:43;7.23;;;6.13;;
15833;SDS011;8017;50.812;4.934;2022-07-23T10:11:49;4.90;;;4.20;;
15833;SDS011;8017;50.812;4.934;2022-07-23T10:14:53;6.17;;;4.80;;
15833;SDS011;8017;50.812;4.934;2022-07-23T10:17:56;4.50;;;4.07;;
15833;SDS011;8017;50.812;4.934;2022-07-23T10:20:58;4.90;;;4.40;;
15833;SDS011;8017;50.812;4.934;2022-07-23T10:24:07;5.63;;;4.60;;
15833;SDS011;8017;50.812;4.934;2022-07-23T10:27:31;4.80;;;3.30;;
15833;SDS011;8017;50.812;4.934;2022-07-23T10:31:01;6.03;;;4.70;;
15833;SDS011;8017;50.812;4.934;2022-07-23T10:34:14;6.60;;;4.23;;
15833;SDS011;8017;50.812;4.934;2022-07-23T10:37:21;6.23;;;4.33;;
15833;SDS011;8017;50.812;4.934;2022-07-23T10:40:30;4.50;;;4.10;;
15833;SDS011;8017;50.812;4.934;2022-07-23T10:43:32;5.40;;;4.10;;
15833;SDS011;8017;50.812;4.934;2022-07-23T10:46:34;6.53;;;4.13;;
15833;SDS011;8017;50.812;4.934;2022-07-23T10:49:45;3.80;;;3.40;;
15833;SDS011;8017;50.812;4.934;2022-07-23T10:56:13;3.90;;;3.27;;
15833;SDS011;8017;50.812;4.934;2022-07-23T10:59:15;4.70;;;3.07;;
15833;SDS011;8017;50.812;4.934;2022-07-23T11:02:21;4.90;;;3.20;;
15833;SDS011;8017;50.812;4.934;2022-07-23T11:05:26;4.17;;;2.80;;
15833;SDS011;8017;50.812;4.934;2022-07-23T11:08:40;5.67;;;3.00;;
15833;SDS011;8017;50.812;4.934;2022-07-23T11:11:42;3.50;;;2.93;;
15833;SDS011;8017;50.812;4.934;2022-07-23T11:14:57;4.43;;;2.50;;
15833;SDS011;8017;50.812;4.934;2022-07-23T11:17:59;2.63;;;1.93;;
15833;SDS011;8017;50.812;4.934;2022-07-23T11:24:42;3.17;;;2.40;;
15833;SDS011;8017;50.812;4.934;2022-07-23T11:27:52;3.47;;;2.47;;
15833;SDS011;8017;50.812;4.934;2022-07-23T11:30:54;5.43;;;2.03;;
15833;SDS011;8017;50.812;4.934;2022-07-23T11:37:27;2.10;;;1.90;;
15833;SDS011;8017;50.812;4.934;2022-07-23T11:40:33;2.83;;;1.83;;
15833;SDS011;8017;50.812;4.934;2022-07-23T11:43:36;2.67;;;1.87;;
15833;SDS011;8017;50.812;4.934;2022-07-23T11:46:38;3.37;;;1.87;;
15833;SDS011;8017;50.812;4.934;2022-07-23T11:49:43;3.37;;;1.90;;
15833;SDS011;8017;50.812;4.934;2022-07-23T11:52:54;2.77;;;2.13;;
15833;SDS011;8017;50.812;4.934;2022-07-23T11:56:03;3.77;;;2.17;;
15833;SDS011;8017;50.812;4.934;2022-07-23T11:59:06;2.00;;;1.70;;
15833;SDS011;8017;50.812;4.934;2022-07-23T12:02:08;2.90;;;1.80;;
15833;SDS011;8017;50.812;4.934;2022-07-23T12:05:11;2.20;;;2.00;;
15833;SDS011;8017;50.812;4.934;2022-07-23T12:08:14;1.83;;;1.73;;
15833;SDS011;8017;50.812;4.934;2022-07-23T12:11:17;2.80;;;1.50;;
15833;SDS011;8017;50.812;4.934;2022-07-23T12:14:19;2.47;;;1.70;;
15833;SDS011;8017;50.812;4.934;2022-07-23T12:17:21;2.67;;;1.90;;
15833;SDS011;8017;50.812;4.934;2022-07-23T12:20:29;3.00;;;2.00;;
15833;SDS011;8017;50.812;4.934;2022-07-23T12:23:32;1.80;;;1.50;;
15833;SDS011;8017;50.812;4.934;2022-07-23T12:26:35;2.13;;;1.70;;
15833;SDS011;8017;50.812;4.934;2022-07-23T12:29:37;4.10;;;2.30;;
15833;SDS011;8017;50.812;4.934;2022-07-23T12:32:42;2.07;;;1.87;;
15833;SDS011;8017;50.812;4.934;2022-07-23T12:35:45;2.23;;;2.03;;
15833;SDS011;8017;50.812;4.934;2022-07-23T12:38:48;2.73;;;1.97;;
15833;SDS011;8017;50.812;4.934;2022-07-23T12:41:52;2.83;;;2.10;;
15833;SDS011;8017;50.812;4.934;2022-07-23T12:45:05;2.27;;;1.80;;
15833;SDS011;8017;50.812;4.934;2022-07-23T12:48:14;3.70;;;2.30;;
15833;SDS011;8017;50.812;4.934;2022-07-23T12:51:18;3.23;;;2.60;;
15833;SDS011;8017;50.812;4.934;2022-07-23T12:54:26;3.00;;;2.37;;
15833;SDS011;8017;50.812;4.934;2022-07-23T13:00:57;2.77;;;2.43;;
15833;SDS011;8017;50.812;4.934;2022-07-23T13:04:01;2.80;;;2.23;;
15833;SDS011;8017;50.812;4.934;2022-07-23T13:07:05;3.87;;;2.40;;
15833;SDS011;8017;50.812;4.934;2022-07-23T13:10:07;3.97;;;2.40;;
15833;SDS011;8017;50.812;4.934;2022-07-23T13:13:13;3.20;;;2.37;;
15833;SDS011;8017;50.812;4.934;2022-07-23T13:16:15;4.27;;;2.40;;
15833;SDS011;8017;50.812;4.934;2022-07-23T13:19:17;2.83;;;2.40;;
15833;SDS011;8017;50.812;4.934;2022-07-23T13:22:22;2.87;;;2.33;;
15833;SDS011;8017;50.812;4.934;2022-07-23T13:25:24;3.30;;;2.40;;
15833;SDS011;8017;50.812;4.934;2022-07-23T13:28:27;4.57;;;2.23;;
15833;SDS011;8017;50.812;4.934;2022-07-23T13:31:29;2.60;;;2.30;;
15833;SDS011;8017;50.812;4.934;2022-07-23T13:34:31;2.40;;;2.20;;
15833;SDS011;8017;50.812;4.934;2022-07-23T13:37:32;2.60;;;2.40;;
15833;SDS011;8017;50.812;4.934;2022-07-23T13:40:35;5.97;;;2.67;;
15833;SDS011;8017;50.812;4.934;2022-07-23T13:43:40;3.77;;;2.40;;
15833;SDS011;8017;50.812;4.934;2022-07-23T13:46:42;4.10;;;2.23;;
15833;SDS011;8017;50.812;4.934;2022-07-23T13:49:44;4.50;;;2.27;;
15833;SDS011;8017;50.812;4.934;2022-07-23T13:52:46;2.63;;;2.40;;
15833;SDS011;8017;50.812;4.934;2022-07-23T13:55:48;3.70;;;2.63;;
15833;SDS011;8017;50.812;4.934;2022-07-23T13:58:53;3.90;;;3.00;;
15833;SDS011;8017;50.812;4.934;2022-07-23T14:01:54;5.13;;;2.57;;
15833;SDS011;8017;50.812;4.934;2022-07-23T14:04:56;6.07;;;2.57;;
15833;SDS011;8017;50.812;4.934;2022-07-23T14:07:58;4.00;;;2.10;;
15833;SDS011;8017;50.812;4.934;2022-07-23T14:11:00;4.40;;;2.27;;
15833;SDS011;8017;50.812;4.934;2022-07-23T14:14:04;2.97;;;2.50;;
15833;SDS011;8017;50.812;4.934;2022-07-23T14:17:06;3.78;;;2.88;;
15833;SDS011;8017;50.812;4.934;2022-07-23T14:20:08;4.60;;;2.72;;
15833;SDS011;8017;50.812;4.934;2022-07-23T14:23:11;4.68;;;2.63;;
15833;SDS011;8017;50.812;4.934;2022-07-23T14:26:13;3.10;;;2.70;;
15833;SDS011;8017;50.812;4.934;2022-07-23T14:29:16;4.88;;;2.95;;
15833;SDS011;8017;50.812;4.934;2022-07-23T14:32:18;3.50;;;2.40;;
15833;SDS011;8017;50.812;4.934;2022-07-23T14:35:20;2.87;;;2.67;;
15833;SDS011;8017;50.812;4.934;2022-07-23T14:38:23;4.18;;;3.47;;
15833;SDS011;8017;50.812;4.934;2022-07-23T14:41:25;3.00;;;2.50;;
15833;SDS011;8017;50.812;4.934;2022-07-23T14:44:29;2.90;;;2.70;;
15833;SDS011;8017;50.812;4.934;2022-07-23T14:47:30;3.97;;;3.10;;
15833;SDS011;8017;50.812;4.934;2022-07-23T14:50:32;3.65;;;2.80;;
15833;SDS011;8017;50.812;4.934;2022-07-23T14:53:34;4.43;;;3.10;;
15833;SDS011;8017;50.812;4.934;2022-07-23T14:56:36;2.80;;;2.60;;
15833;SDS011;8017;50.812;4.934;2022-07-23T14:59:39;4.33;;;3.00;;
15833;SDS011;8017;50.812;4.934;2022-07-23T15:02:43;4.03;;;2.92;;
15833;SDS011;8017;50.812;4.934;2022-07-23T15:05:44;4.30;;;2.70;;
15833;SDS011;8017;50.812;4.934;2022-07-23T15:08:46;3.33;;;2.50;;
15833;SDS011;8017;50.812;4.934;2022-07-23T15:11:48;3.13;;;2.83;;
15833;SDS011;8017;50.812;4.934;2022-07-23T15:14:52;3.30;;;2.92;;
15833;SDS011;8017;50.812;4.934;2022-07-23T15:17:53;2.60;;;2.40;;
15833;SDS011;8017;50.812;4.934;2022-07-23T15:20:55;3.40;;;2.88;;
15833;SDS011;8017;50.812;4.934;2022-07-23T15:23:57;4.40;;;2.97;;
15833;SDS011;8017;50.812;4.934;2022-07-23T15:26:59;5.25;;;2.83;;
15833;SDS011;8017;50.812;4.934;2022-07-23T15:30:03;2.72;;;2.53;;
15833;SDS011;8017;50.812;4.934;2022-07-23T15:33:06;5.30;;;2.60;;
15833;SDS011;8017;50.812;4.934;2022-07-23T15:36:08;3.10;;;2.65;;
15833;SDS011;8017;50.812;4.934;2022-07-23T15:39:10;4.82;;;3.13;;
15833;SDS011;8017;50.812;4.934;2022-07-23T15:42:13;2.80;;;2.58;;
15833;SDS011;8017;50.812;4.934;2022-07-23T15:45:16;3.13;;;2.60;;
15833;SDS011;8017;50.812;4.934;2022-07-23T15:48:18;3.00;;;2.70;;
15833;SDS011;8017;50.812;4.934;2022-07-23T15:51:21;3.92;;;2.78;;
15833;SDS011;8017;50.812;4.934;2022-07-23T15:54:22;4.32;;;2.40;;
15833;SDS011;8017;50.812;4.934;2022-07-23T15:57:24;2.83;;;2.63;;
15833;SDS011;8017;50.812;4.934;2022-07-23T16:00:28;3.17;;;2.88;;
15833;SDS011;8017;50.812;4.934;2022-07-23T16:03:30;4.45;;;2.90;;
15833;SDS011;8017;50.812;4.934;2022-07-23T16:06:32;3.40;;;3.10;;
15833;SDS011;8017;50.812;4.934;2022-07-23T16:09:34;3.33;;;2.60;;
15833;SDS011;8017;50.812;4.934;2022-07-23T16:12:36;3.67;;;2.83;;
15833;SDS011;8017;50.812;4.934;2022-07-23T16:15:39;3.80;;;3.17;;
15833;SDS011;8017;50.812;4.934;2022-07-23T16:18:41;3.63;;;2.67;;
15833;SDS011;8017;50.812;4.934;2022-07-23T16:21:43;3.10;;;2.72;;
15833;SDS011;8017;50.812;4.934;2022-07-23T16:24:45;3.72;;;2.92;;
15833;SDS011;8017;50.812;4.934;2022-07-23T16:27:47;3.35;;;2.60;;
15833;SDS011;8017;50.812;4.934;2022-07-23T16:30:51;4.63;;;2.78;;
15833;SDS011;8017;50.812;4.934;2022-07-23T16:33:53;2.75;;;2.55;;
15833;SDS011;8017;50.812;4.934;2022-07-23T16:36:55;3.20;;;2.90;;
15833;SDS011;8017;50.812;4.934;2022-07-23T16:39:57;3.67;;;2.45;;
15833;SDS011;8017;50.812;4.934;2022-07-23T16:43:00;3.67;;;2.67;;
15833;SDS011;8017;50.812;4.934;2022-07-23T16:46:03;4.03;;;3.30;;
15833;SDS011;8017;50.812;4.934;2022-07-23T16:49:07;3.63;;;3.10;;
15833;SDS011;8017;50.812;4.934;2022-07-23T16:52:09;2.95;;;2.60;;
15833;SDS011;8017;50.812;4.934;2022-07-23T16:55:11;3.20;;;2.90;;
15833;SDS011;8017;50.812;4.934;2022-07-23T16:58:13;3.58;;;2.33;;
15833;SDS011;8017;50.812;4.934;2022-07-23T17:01:16;2.78;;;2.58;;
15833;SDS011;8017;50.812;4.934;2022-07-23T17:04:18;2.95;;;2.63;;
15833;SDS011;8017;50.812;4.934;2022-07-23T17:07:20;4.15;;;2.67;;
15833;SDS011;8017;50.812;4.934;2022-07-23T17:10:22;3.45;;;2.45;;
15833;SDS011;8017;50.812;4.934;2022-07-23T17:13:24;3.42;;;2.75;;
15833;SDS011;8017;50.812;4.934;2022-07-23T17:16:28;3.20;;;2.88;;
15833;SDS011;8017;50.812;4.934;2022-07-23T17:19:30;2.63;;;2.42;;
15833;SDS011;8017;50.812;4.934;2022-07-23T17:22:32;3.72;;;3.08;;
15833;SDS011;8017;50.812;4.934;2022-07-23T17:25:35;3.28;;;2.88;;
15833;SDS011;8017;50.812;4.934;2022-07-23T17:28:37;4.55;;;2.80;;
15833;SDS011;8017;50.812;4.934;2022-07-23T17:31:40;4.68;;;2.70;;
15833;SDS011;8017;50.812;4.934;2022-07-23T17:34:42;3.30;;;2.33;;
15833;SDS011;8017;50.812;4.934;2022-07-23T17:37:44;3.90;;;2.70;;
15833;SDS011;8017;50.812;4.934;2022-07-23T17:40:46;2.95;;;2.25;;
15833;SDS011;8017;50.812;4.934;2022-07-23T17:43:48;5.90;;;2.50;;
15833;SDS011;8017;50.812;4.934;2022-07-23T17:46:51;3.95;;;2.75;;
15833;SDS011;8017;50.812;4.934;2022-07-23T17:49:53;3.92;;;3.00;;
15833;SDS011;8017;50.812;4.934;2022-07-23T17:52:55;4.45;;;3.20;;
15833;SDS011;8017;50.812;4.934;2022-07-23T17:55:58;2.90;;;2.63;;
15833;SDS011;8017;50.812;4.934;2022-07-23T17:59:00;3.50;;;3.20;;
15833;SDS011;8017;50.812;4.934;2022-07-23T18:02:04;4.57;;;3.65;;
15833;SDS011;8017;50.812;4.934;2022-07-23T18:05:07;3.38;;;3.08;;
15833;SDS011;8017;50.812;4.934;2022-07-23T18:08:09;4.70;;;3.38;;
15833;SDS011;8017;50.812;4.934;2022-07-23T18:11:12;3.58;;;3.28;;
15833;SDS011;8017;50.812;4.934;2022-07-23T18:14:13;3.28;;;2.97;;
15833;SDS011;8017;50.812;4.934;2022-07-23T18:17:17;4.20;;;3.35;;
15833;SDS011;8017;50.812;4.934;2022-07-23T18:20:19;6.25;;;3.60;;
15833;SDS011;8017;50.812;4.934;2022-07-23T18:23:21;3.67;;;3.28;;
15833;SDS011;8017;50.812;4.934;2022-07-23T18:26:22;3.83;;;3.35;;
15833;SDS011;8017;50.812;4.934;2022-07-23T18:29:24;5.78;;;3.22;;
15833;SDS011;8017;50.812;4.934;2022-07-23T18:32:28;4.28;;;3.10;;
15833;SDS011;8017;50.812;4.934;2022-07-23T18:35:30;5.27;;;3.50;;
15833;SDS011;8017;50.812;4.934;2022-07-23T18:38:32;4.87;;;3.20;;